Terminal Aerodrome Forecast
Issued by NWS Wilmington, OH

Home | Current Version | Previous Version | Text Only | Print | Product List | Glossary On
Versions: 1 2 3 4 5 6 7 8 9 10 11 12 13 14 15 16 17 18 19 20 21 22
375
FTUS41 KILN 292339
TAFCVG
TAF
KCVG 292339Z 3000/3106 09010KT P6SM SCT250
     FM300900 10008KT P6SM BKN040 BKN250
     FM301400 16012KT P6SM SCT040 BKN250
     FM301700 18014G24KT P6SM SCT050 BKN250
     FM310000 18010KT P6SM VCSH BKN060 OVC150
     FM310200 18008KT 5SM -SHRA BR VCTS SCT008 OVC020CB
      TEMPO 3104/3106 2SM -TSRA BKN008 OVC015CB=

USA.gov is the U.S. government's official web portal to all federal, state and local government web resources and services.